sensor_id;sensor_type;location;lat;lon;timestamp;pressure;altitude;pressure_sealevel;temperature
45976;BMP280;31696;42.668;23.322;2023-12-20T00:00:32;95047.19;;;1.65
45976;BMP280;31696;42.668;23.322;2023-12-20T00:02:33;95041.97;;;1.54
45976;BMP280;31696;42.668;23.322;2023-12-20T00:04:33;95040.75;;;1.49
45976;BMP280;31696;42.668;23.322;2023-12-20T00:06:34;95037.88;;;1.62
45976;BMP280;31696;42.668;23.322;2023-12-20T00:08:34;95043.19;;;1.58
45976;BMP280;31696;42.668;23.322;2023-12-20T00:10:34;95035.44;;;1.53
45976;BMP280;31696;42.668;23.322;2023-12-20T00:12:35;95036.28;;;1.44
45976;BMP280;31696;42.668;23.322;2023-12-20T00:14:35;95030.00;;;1.45
45976;BMP280;31696;42.668;23.322;2023-12-20T00:16:35;95031.59;;;1.63
45976;BMP280;31696;42.668;23.322;2023-12-20T00:18:36;95027.22;;;1.69
45976;BMP280;31696;42.668;23.322;2023-12-20T00:20:36;95016.06;;;1.46
45976;BMP280;31696;42.668;23.322;2023-12-20T00:22:36;95028.84;;;1.46
45976;BMP280;31696;42.668;23.322;2023-12-20T00:24:37;95014.56;;;1.60
45976;BMP280;31696;42.668;23.322;2023-12-20T00:26:37;95015.69;;;1.53
45976;BMP280;31696;42.668;23.322;2023-12-20T00:28:37;95014.50;;;1.54
45976;BMP280;31696;42.668;23.322;2023-12-20T00:30:38;95009.03;;;1.41
45976;BMP280;31696;42.668;23.322;2023-12-20T00:32:38;95012.03;;;1.40
45976;BMP280;31696;42.668;23.322;2023-12-20T00:34:38;94997.69;;;1.48
45976;BMP280;31696;42.668;23.322;2023-12-20T00:36:39;94994.16;;;1.45
45976;BMP280;31696;42.668;23.322;2023-12-20T00:38:39;95001.16;;;1.45
45976;BMP280;31696;42.668;23.322;2023-12-20T00:40:39;94998.19;;;1.52
45976;BMP280;31696;42.668;23.322;2023-12-20T00:42:40;94997.38;;;1.40
45976;BMP280;31696;42.668;23.322;2023-12-20T00:44:40;95002.56;;;1.46
45976;BMP280;31696;42.668;23.322;2023-12-20T00:46:40;94988.75;;;1.38
45976;BMP280;31696;42.668;23.322;2023-12-20T00:48:41;94986.94;;;1.44
45976;BMP280;31696;42.668;23.322;2023-12-20T00:50:42;94977.28;;;1.27
45976;BMP280;31696;42.668;23.322;2023-12-20T00:52:42;94990.25;;;1.24
45976;BMP280;31696;42.668;23.322;2023-12-20T00:54:43;94978.69;;;1.34
45976;BMP280;31696;42.668;23.322;2023-12-20T00:56:43;94985.41;;;1.26
45976;BMP280;31696;42.668;23.322;2023-12-20T00:58:43;94983.94;;;1.19
45976;BMP280;31696;42.668;23.322;2023-12-20T01:00:44;94970.91;;;1.17
45976;BMP280;31696;42.668;23.322;2023-12-20T01:02:44;94969.34;;;1.25
45976;BMP280;31696;42.668;23.322;2023-12-20T01:04:46;94970.50;;;1.24
45976;BMP280;31696;42.668;23.322;2023-12-20T01:06:47;94964.38;;;1.16
45976;BMP280;31696;42.668;23.322;2023-12-20T01:08:47;94968.91;;;1.27
45976;BMP280;31696;42.668;23.322;2023-12-20T01:10:47;94963.16;;;1.38
45976;BMP280;31696;42.668;23.322;2023-12-20T01:12:48;94964.50;;;1.27
45976;BMP280;31696;42.668;23.322;2023-12-20T01:14:48;94963.63;;;1.36
45976;BMP280;31696;42.668;23.322;2023-12-20T01:16:48;94964.81;;;1.41
45976;BMP280;31696;42.668;23.322;2023-12-20T01:18:48;94957.25;;;1.26
45976;BMP280;31696;42.668;23.322;2023-12-20T01:20:49;94957.25;;;1.26
45976;BMP280;31696;42.668;23.322;2023-12-20T01:22:49;94949.19;;;1.39
45976;BMP280;31696;42.668;23.322;2023-12-20T01:24:50;94952.34;;;1.22
45976;BMP280;31696;42.668;23.322;2023-12-20T01:26:50;94949.41;;;1.09
45976;BMP280;31696;42.668;23.322;2023-12-20T01:28:50;94942.63;;;1.26
45976;BMP280;31696;42.668;23.322;2023-12-20T01:30:51;94938.16;;;1.21
45976;BMP280;31696;42.668;23.322;2023-12-20T01:32:51;94933.19;;;1.12
45976;BMP280;31696;42.668;23.322;2023-12-20T01:34:51;94933.97;;;1.24
45976;BMP280;31696;42.668;23.322;2023-12-20T01:36:52;94931.94;;;1.08
45976;BMP280;31696;42.668;23.322;2023-12-20T01:38:52;94929.13;;;1.26
45976;BMP280;31696;42.668;23.322;2023-12-20T01:40:52;94922.75;;;1.16
45976;BMP280;31696;42.668;23.322;2023-12-20T01:42:59;94918.78;;;1.15
45976;BMP280;31696;42.668;23.322;2023-12-20T01:45:00;94920.47;;;1.23
45976;BMP280;31696;42.668;23.322;2023-12-20T01:47:00;94919.75;;;1.17
45976;BMP280;31696;42.668;23.322;2023-12-20T01:49:01;94914.63;;;1.17
45976;BMP280;31696;42.668;23.322;2023-12-20T01:51:02;94909.75;;;1.19
45976;BMP280;31696;42.668;23.322;2023-12-20T01:53:02;94902.66;;;1.09
45976;BMP280;31696;42.668;23.322;2023-12-20T01:55:04;94901.81;;;1.17
45976;BMP280;31696;42.668;23.322;2023-12-20T01:57:11;94902.22;;;1.10
45976;BMP280;31696;42.668;23.322;2023-12-20T01:59:11;94904.38;;;1.17
45976;BMP280;31696;42.668;23.322;2023-12-20T02:01:12;94903.84;;;1.13
45976;BMP280;31696;42.668;23.322;2023-12-20T02:03:13;94903.84;;;1.13
45976;BMP280;31696;42.668;23.322;2023-12-20T02:05:13;94895.25;;;1.11
45976;BMP280;31696;42.668;23.322;2023-12-20T02:07:14;94898.53;;;0.91
45976;BMP280;31696;42.668;23.322;2023-12-20T02:09:14;94885.59;;;1.00
45976;BMP280;31696;42.668;23.322;2023-12-20T02:11:15;94888.22;;;1.06
45976;BMP280;31696;42.668;23.322;2023-12-20T02:13:15;94892.19;;;1.07
45976;BMP280;31696;42.668;23.322;2023-12-20T02:15:15;94883.75;;;1.01
45976;BMP280;31696;42.668;23.322;2023-12-20T02:17:16;94881.28;;;0.86
45976;BMP280;31696;42.668;23.322;2023-12-20T02:19:17;94886.69;;;0.94
45976;BMP280;31696;42.668;23.322;2023-12-20T02:21:17;94878.53;;;0.90
45976;BMP280;31696;42.668;23.322;2023-12-20T02:23:18;94873.34;;;0.84
45976;BMP280;31696;42.668;23.322;2023-12-20T02:25:18;94877.50;;;1.02
45976;BMP280;31696;42.668;23.322;2023-12-20T02:27:18;94872.75;;;0.95
45976;BMP280;31696;42.668;23.322;2023-12-20T02:29:19;94870.25;;;1.00
45976;BMP280;31696;42.668;23.322;2023-12-20T02:31:23;94871.81;;;0.92
45976;BMP280;31696;42.668;23.322;2023-12-20T02:33:23;94867.31;;;0.81
45976;BMP280;31696;42.668;23.322;2023-12-20T02:35:24;94862.88;;;0.82
45976;BMP280;31696;42.668;23.322;2023-12-20T02:37:24;94860.84;;;0.86
45976;BMP280;31696;42.668;23.322;2023-12-20T02:39:25;94854.03;;;0.83
45976;BMP280;31696;42.668;23.322;2023-12-20T02:41:25;94851.50;;;0.83
45976;BMP280;31696;42.668;23.322;2023-12-20T02:43:26;94848.81;;;0.92
45976;BMP280;31696;42.668;23.322;2023-12-20T02:45:26;94843.06;;;1.03
45976;BMP280;31696;42.668;23.322;2023-12-20T02:47:27;94839.72;;;0.91
45976;BMP280;31696;42.668;23.322;2023-12-20T02:49:27;94852.38;;;1.00
45976;BMP280;31696;42.668;23.322;2023-12-20T02:51:27;94849.31;;;0.96
45976;BMP280;31696;42.668;23.322;2023-12-20T02:53:28;94854.59;;;0.93
45976;BMP280;31696;42.668;23.322;2023-12-20T02:55:28;94849.03;;;0.94
45976;BMP280;31696;42.668;23.322;2023-12-20T02:57:28;94853.00;;;0.95
45976;BMP280;31696;42.668;23.322;2023-12-20T02:59:28;94858.94;;;1.07
45976;BMP280;31696;42.668;23.322;2023-12-20T03:01:29;94859.44;;;1.11
45976;BMP280;31696;42.668;23.322;2023-12-20T03:03:29;94853.13;;;1.06
45976;BMP280;31696;42.668;23.322;2023-12-20T03:05:29;94855.63;;;1.01
45976;BMP280;31696;42.668;23.322;2023-12-20T03:07:30;94853.06;;;1.01
45976;BMP280;31696;42.668;23.322;2023-12-20T03:09:30;94850.50;;;1.01
45976;BMP280;31696;42.668;23.322;2023-12-20T03:11:30;94847.03;;;0.78
45976;BMP280;31696;42.668;23.322;2023-12-20T03:13:31;94847.59;;;0.87
45976;BMP280;31696;42.668;23.322;2023-12-20T03:15:31;94848.34;;;0.94
45976;BMP280;31696;42.668;23.322;2023-12-20T03:17:31;94845.50;;;0.86
45976;BMP280;31696;42.668;23.322;2023-12-20T03:19:32;94847.50;;;0.76
45976;BMP280;31696;42.668;23.322;2023-12-20T03:21:32;94845.31;;;0.69
45976;BMP280;31696;42.668;23.322;2023-12-20T03:23:32;94839.31;;;0.52
45976;BMP280;31696;42.668;23.322;2023-12-20T03:25:33;94837.72;;;0.55
45976;BMP280;31696;42.668;23.322;2023-12-20T03:27:33;94834.66;;;0.51
45976;BMP280;31696;42.668;23.322;2023-12-20T03:29:34;94830.72;;;0.50
45976;BMP280;31696;42.668;23.322;2023-12-20T03:31:34;94830.19;;;0.66
45976;BMP280;31696;42.668;23.322;2023-12-20T03:33:34;94829.28;;;0.49
45976;BMP280;31696;42.668;23.322;2023-12-20T03:35:35;94830.25;;;0.51
45976;BMP280;31696;42.668;23.322;2023-12-20T03:37:35;94835.94;;;0.61
45976;BMP280;31696;42.668;23.322;2023-12-20T03:39:36;94833.69;;;0.48
45976;BMP280;31696;42.668;23.322;2023-12-20T03:41:36;94836.19;;;0.42
45976;BMP280;31696;42.668;23.322;2023-12-20T03:43:37;94827.53;;;0.14
45976;BMP280;31696;42.668;23.322;2023-12-20T03:45:37;94825.88;;;0.31
45976;BMP280;31696;42.668;23.322;2023-12-20T03:47:37;94838.72;;;0.63
45976;BMP280;31696;42.668;23.322;2023-12-20T03:49:38;94830.97;;;0.31
45976;BMP280;31696;42.668;23.322;2023-12-20T03:51:38;94826.88;;;0.39
45976;BMP280;31696;42.668;23.322;2023-12-20T03:53:39;94817.88;;;0.44
45976;BMP280;31696;42.668;23.322;2023-12-20T03:55:40;94821.31;;;0.61
45976;BMP280;31696;42.668;23.322;2023-12-20T03:57:41;94823.59;;;0.59
45976;BMP280;31696;42.668;23.322;2023-12-20T03:59:41;94818.44;;;0.54
45976;BMP280;31696;42.668;23.322;2023-12-20T04:01:44;94823.63;;;0.39
45976;BMP280;31696;42.668;23.322;2023-12-20T04:03:45;94812.06;;;0.43
45976;BMP280;31696;42.668;23.322;2023-12-20T04:05:45;94813.84;;;0.37
45976;BMP280;31696;42.668;23.322;2023-12-20T04:07:45;94808.72;;;0.37
45976;BMP280;31696;42.668;23.322;2023-12-20T04:09:46;94813.19;;;0.42
45976;BMP280;31696;42.668;23.322;2023-12-20T04:11:47;94801.34;;;0.39
45976;BMP280;31696;42.668;23.322;2023-12-20T04:13:47;94810.50;;;0.52
45976;BMP280;31696;42.668;23.322;2023-12-20T04:15:47;94797.22;;;0.48
45976;BMP280;31696;42.668;23.322;2023-12-20T04:17:50;94796.81;;;0.29
45976;BMP280;31696;42.668;23.322;2023-12-20T04:19:50;94800.75;;;0.50
45976;BMP280;31696;42.668;23.322;2023-12-20T04:21:51;94791.81;;;0.40
45976;BMP280;31696;42.668;23.322;2023-12-20T04:23:51;94799.91;;;0.38
45976;BMP280;31696;42.668;23.322;2023-12-20T04:25:51;94801.50;;;0.56
45976;BMP280;31696;42.668;23.322;2023-12-20T04:27:52;94790.59;;;0.35
45976;BMP280;31696;42.668;23.322;2023-12-20T04:29:52;94791.41;;;0.47
45976;BMP280;31696;42.668;23.322;2023-12-20T04:31:52;94782.81;;;0.44
45976;BMP280;31696;42.668;23.322;2023-12-20T04:33:53;94775.28;;;0.35
45976;BMP280;31696;42.668;23.322;2023-12-20T04:35:53;94777.19;;;0.40
45976;BMP280;31696;42.668;23.322;2023-12-20T04:37:53;94778.94;;;0.55
45976;BMP280;31696;42.668;23.322;2023-12-20T04:39:54;94773.50;;;0.21
45976;BMP280;31696;42.668;23.322;2023-12-20T04:41:54;94769.91;;;0.33
45976;BMP280;31696;42.668;23.322;2023-12-20T04:43:55;94772.47;;;0.33
45976;BMP280;31696;42.668;23.322;2023-12-20T04:45:55;94775.34;;;0.41
45976;BMP280;31696;42.668;23.322;2023-12-20T04:47:55;94777.19;;;0.40
45976;BMP280;31696;42.668;23.322;2023-12-20T04:49:56;94769.88;;;0.28
45976;BMP280;31696;42.668;23.322;2023-12-20T04:51:56;94766.41;;;0.11
45976;BMP280;31696;42.668;23.322;2023-12-20T04:53:57;94763.34;;;0.27
45976;BMP280;31696;42.668;23.322;2023-12-20T04:55:57;94764.13;;;0.13
45976;BMP280;31696;42.668;23.322;2023-12-20T04:57:57;94763.31;;;0.47
45976;BMP280;31696;42.668;23.322;2023-12-20T04:59:58;94771.56;;;0.36
45976;BMP280;31696;42.668;23.322;2023-12-20T05:01:58;94772.16;;;0.26
45976;BMP280;31696;42.668;23.322;2023-12-20T05:03:58;94760.81;;;0.27
45976;BMP280;31696;42.668;23.322;2023-12-20T05:05:59;94766.09;;;0.23
45976;BMP280;31696;42.668;23.322;2023-12-20T05:07:59;94758.59;;;0.14
45976;BMP280;31696;42.668;23.322;2023-12-20T05:09:59;94750.28;;;0.19
45976;BMP280;31696;42.668;23.322;2023-12-20T05:12:00;94760.22;;;0.17
45976;BMP280;31696;42.668;23.322;2023-12-20T05:14:00;94754.47;;;0.22
45976;BMP280;31696;42.668;23.322;2023-12-20T05:16:01;94752.06;;;0.13
45976;BMP280;31696;42.668;23.322;2023-12-20T05:18:01;94751.50;;;0.24
45976;BMP280;31696;42.668;23.322;2023-12-20T05:20:01;94749.88;;;0.06
45976;BMP280;31696;42.668;23.322;2023-12-20T05:22:02;94749.31;;;0.17
45976;BMP280;31696;42.668;23.322;2023-12-20T05:24:02;94749.88;;;0.26
45976;BMP280;31696;42.668;23.322;2023-12-20T05:26:03;94741.72;;;0.22
45976;BMP280;31696;42.668;23.322;2023-12-20T05:28:03;94745.03;;;0.28
45976;BMP280;31696;42.668;23.322;2023-12-20T05:30:04;94751.03;;;0.25
45976;BMP280;31696;42.668;23.322;2023-12-20T05:32:05;94740.13;;;0.25
45976;BMP280;31696;42.668;23.322;2023-12-20T05:34:05;94734.97;;;0.19
45976;BMP280;31696;42.668;23.322;2023-12-20T05:36:05;94723.19;;;0.27
45976;BMP280;31696;42.668;23.322;2023-12-20T05:38:09;94743.00;;;0.12
45976;BMP280;31696;42.668;23.322;2023-12-20T05:40:10;94728.53;;;0.04
45976;BMP280;31696;42.668;23.322;2023-12-20T05:42:10;94737.91;;;0.12
45976;BMP280;31696;42.668;23.322;2023-12-20T05:44:10;94737.66;;;0.10
45976;BMP280;31696;42.668;23.322;2023-12-20T05:46:11;94745.69;;;0.03
45976;BMP280;31696;42.668;23.322;2023-12-20T05:48:12;94744.69;;;0.15
45976;BMP280;31696;42.668;23.322;2023-12-20T05:50:12;94741.66;;;0.17
45976;BMP280;31696;42.668;23.322;2023-12-20T05:52:13;94733.22;;;0.11
45976;BMP280;31696;42.668;23.322;2023-12-20T05:54:13;94732.41;;;-0.01
45976;BMP280;31696;42.668;23.322;2023-12-20T05:56:13;94731.63;;;0.13
45976;BMP280;31696;42.668;23.322;2023-12-20T05:58:13;94722.22;;;-0.01
45976;BMP280;31696;42.668;23.322;2023-12-20T06:00:14;94735.59;;;0.14
45976;BMP280;31696;42.668;23.322;2023-12-20T06:02:15;94721.75;;;0.00
45976;BMP280;31696;42.668;23.322;2023-12-20T06:04:15;94713.06;;;0.13
45976;BMP280;31696;42.668;23.322;2023-12-20T06:06:16;94730.56;;;-0.01
45976;BMP280;31696;42.668;23.322;2023-12-20T06:08:17;94720.97;;;0.15
45976;BMP280;31696;42.668;23.322;2023-12-20T06:10:18;94724.69;;;0.14
45976;BMP280;31696;42.668;23.322;2023-12-20T06:12:18;94721.13;;;0.31
45976;BMP280;31696;42.668;23.322;2023-12-20T06:14:18;94714.72;;;-0.05
45976;BMP280;31696;42.668;23.322;2023-12-20T06:16:19;94723.47;;;0.09
45976;BMP280;31696;42.668;23.322;2023-12-20T06:18:19;94724.84;;;0.30
45976;BMP280;31696;42.668;23.322;2023-12-20T06:20:20;94728.69;;;0.46
45976;BMP280;31696;42.668;23.322;2023-12-20T06:22:20;94722.78;;;0.34
45976;BMP280;31696;42.668;23.322;2023-12-20T06:24:20;94728.13;;;0.11
45976;BMP280;31696;42.668;23.322;2023-12-20T06:26:21;94732.09;;;0.37
45976;BMP280;31696;42.668;23.322;2023-12-20T06:28:22;94736.88;;;0.24
45976;BMP280;31696;42.668;23.322;2023-12-20T06:30:22;94733.00;;;0.34
45976;BMP280;31696;42.668;23.322;2023-12-20T06:32:25;94731.94;;;0.47
45976;BMP280;31696;42.668;23.322;2023-12-20T06:34:25;94729.00;;;0.54
45976;BMP280;31696;42.668;23.322;2023-12-20T06:36:28;94731.19;;;0.40
45976;BMP280;31696;42.668;23.322;2023-12-20T06:38:29;94726.75;;;0.35
45976;BMP280;31696;42.668;23.322;2023-12-20T06:40:29;94713.75;;;0.39
45976;BMP280;31696;42.668;23.322;2023-12-20T06:42:29;94718.38;;;0.61
45976;BMP280;31696;42.668;23.322;2023-12-20T06:44:30;94720.56;;;0.48
45976;BMP280;31696;42.668;23.322;2023-12-20T06:46:30;94718.25;;;0.75
45976;BMP280;31696;42.668;23.322;2023-12-20T06:48:30;94716.31;;;0.39
45976;BMP280;31696;42.668;23.322;2023-12-20T06:50:31;94705.97;;;0.79
45976;BMP280;31696;42.668;23.322;2023-12-20T06:52:31;94712.94;;;0.53
45976;BMP280;31696;42.668;23.322;2023-12-20T06:54:32;94717.47;;;0.64
45976;BMP280;31696;42.668;23.322;2023-12-20T06:56:34;94709.22;;;0.80
45976;BMP280;31696;42.668;23.322;2023-12-20T06:58:34;94705.06;;;0.57
45976;BMP280;31696;42.668;23.322;2023-12-20T07:00:36;94711.69;;;0.69
45976;BMP280;31696;42.668;23.322;2023-12-20T07:02:37;94709.47;;;0.51
45976;BMP280;31696;42.668;23.322;2023-12-20T07:04:40;94697.34;;;0.46
45976;BMP280;31696;42.668;23.322;2023-12-20T07:06:40;94697.81;;;0.75
45976;BMP280;31696;42.668;23.322;2023-12-20T07:08:41;94698.59;;;0.87
45976;BMP280;31696;42.668;23.322;2023-12-20T07:10:41;94704.06;;;0.74
45976;BMP280;31696;42.668;23.322;2023-12-20T07:12:41;94705.41;;;0.96
45976;BMP280;31696;42.668;23.322;2023-12-20T07:14:42;94705.09;;;0.88
45976;BMP280;31696;42.668;23.322;2023-12-20T07:16:42;94697.00;;;0.64
45976;BMP280;31696;42.668;23.322;2023-12-20T07:18:42;94700.16;;;0.79
45976;BMP280;31696;42.668;23.322;2023-12-20T07:20:43;94688.13;;;1.22
45976;BMP280;31696;42.668;23.322;2023-12-20T07:22:43;94692.44;;;1.05
45976;BMP280;31696;42.668;23.322;2023-12-20T07:24:43;94692.13;;;0.92
45976;BMP280;31696;42.668;23.322;2023-12-20T07:26:44;94680.75;;;0.98
45976;BMP280;31696;42.668;23.322;2023-12-20T07:28:44;94682.59;;;1.29
45976;BMP280;31696;42.668;23.322;2023-12-20T07:30:44;94681.44;;;1.30
45976;BMP280;31696;42.668;23.322;2023-12-20T07:32:45;94680.31;;;1.42
45976;BMP280;31696;42.668;23.322;2023-12-20T07:34:45;94673.41;;;1.65
45976;BMP280;31696;42.668;23.322;2023-12-20T07:36:45;94682.72;;;1.57
45976;BMP280;31696;42.668;23.322;2023-12-20T07:38:45;94672.56;;;1.79
45976;BMP280;31696;42.668;23.322;2023-12-20T07:40:46;94682.09;;;1.73
45976;BMP280;31696;42.668;23.322;2023-12-20T07:42:46;94681.00;;;2.07
45976;BMP280;31696;42.668;23.322;2023-12-20T07:44:47;94676.19;;;1.56
45976;BMP280;31696;42.668;23.322;2023-12-20T07:46:47;94685.53;;;1.70
45976;BMP280;31696;42.668;23.322;2023-12-20T07:48:48;94688.25;;;1.50
45976;BMP280;31696;42.668;23.322;2023-12-20T07:50:49;94674.72;;;1.33
45976;BMP280;31696;42.668;23.322;2023-12-20T07:52:49;94670.19;;;1.70
45976;BMP280;31696;42.668;23.322;2023-12-20T07:54:49;94668.31;;;1.70
45976;BMP280;31696;42.668;23.322;2023-12-20T07:56:50;94672.56;;;1.79
45976;BMP280;31696;42.668;23.322;2023-12-20T07:58:50;94667.91;;;1.83
45976;BMP280;31696;42.668;23.322;2023-12-20T08:00:50;94665.88;;;1.45
45976;BMP280;31696;42.668;23.322;2023-12-20T08:02:51;94665.75;;;1.70
45976;BMP280;31696;42.668;23.322;2023-12-20T08:04:51;94663.44;;;1.72
45976;BMP280;31696;42.668;23.322;2023-12-20T08:06:51;94669.31;;;1.95
45976;BMP280;31696;42.668;23.322;2023-12-20T08:08:52;94679.88;;;2.25
45976;BMP280;31696;42.668;23.322;2023-12-20T08:10:52;94669.31;;;1.79
45976;BMP280;31696;42.668;23.322;2023-12-20T08:12:52;94670.97;;;1.98
45976;BMP280;31696;42.668;23.322;2023-12-20T08:14:53;94655.84;;;2.17
45976;BMP280;31696;42.668;23.322;2023-12-20T08:16:53;94656.56;;;2.40
45976;BMP280;31696;42.668;23.322;2023-12-20T08:18:53;94655.63;;;2.32
45976;BMP280;31696;42.668;23.322;2023-12-20T08:20:54;94655.88;;;2.39
45976;BMP280;31696;42.668;23.322;2023-12-20T08:22:54;94644.69;;;2.59
45976;BMP280;31696;42.668;23.322;2023-12-20T08:24:54;94655.34;;;2.96
45976;BMP280;31696;42.668;23.322;2023-12-20T08:26:55;94653.47;;;3.02
45976;BMP280;31696;42.668;23.322;2023-12-20T08:28:55;94648.00;;;3.34
45976;BMP280;31696;42.668;23.322;2023-12-20T08:30:55;94656.41;;;3.34
45976;BMP280;31696;42.668;23.322;2023-12-20T08:32:56;94657.13;;;4.17
45976;BMP280;31696;42.668;23.322;2023-12-20T08:34:56;94643.41;;;4.09
45976;BMP280;31696;42.668;23.322;2023-12-20T08:36:57;94622.81;;;3.79
45976;BMP280;31696;42.668;23.322;2023-12-20T08:38:57;94625.91;;;3.14
45976;BMP280;31696;42.668;23.322;2023-12-20T08:40:57;94627.69;;;3.36
45976;BMP280;31696;42.668;23.322;2023-12-20T08:42:58;94621.28;;;3.01
45976;BMP280;31696;42.668;23.322;2023-12-20T08:44:58;94628.97;;;3.01
45976;BMP280;31696;42.668;23.322;2023-12-20T08:46:59;94624.06;;;2.98
45976;BMP280;31696;42.668;23.322;2023-12-20T08:48:59;94618.47;;;2.99
45976;BMP280;31696;42.668;23.322;2023-12-20T08:51:00;94612.72;;;2.77
45976;BMP280;31696;42.668;23.322;2023-12-20T08:53:00;94616.44;;;2.81
45976;BMP280;31696;42.668;23.322;2023-12-20T08:55:01;94615.06;;;2.75
45976;BMP280;31696;42.668;23.322;2023-12-20T08:57:01;94621.59;;;2.70
45976;BMP280;31696;42.668;23.322;2023-12-20T08:59:01;94610.63;;;2.70
45976;BMP280;31696;42.668;23.322;2023-12-20T09:01:02;94603.63;;;2.81
45976;BMP280;31696;42.668;23.322;2023-12-20T09:03:03;94602.22;;;2.69
45976;BMP280;31696;42.668;23.322;2023-12-20T09:05:03;94593.59;;;2.78
45976;BMP280;31696;42.668;23.322;2023-12-20T09:07:04;94602.91;;;2.86
45976;BMP280;31696;42.668;23.322;2023-12-20T09:09:04;94582.22;;;2.62
45976;BMP280;31696;42.668;23.322;2023-12-20T09:11:04;94580.06;;;2.88
45976;BMP280;31696;42.668;23.322;2023-12-20T09:13:05;94566.63;;;2.60
45976;BMP280;31696;42.668;23.322;2023-12-20T09:15:05;94551.47;;;2.51
45976;BMP280;31696;42.668;23.322;2023-12-20T09:17:05;94554.91;;;2.70
45976;BMP280;31696;42.668;23.322;2023-12-20T09:19:08;94547.13;;;2.98
45976;BMP280;31696;42.668;23.322;2023-12-20T09:21:08;94549.09;;;2.75
45976;BMP280;31696;42.668;23.322;2023-12-20T09:23:08;94541.31;;;2.97
45976;BMP280;31696;42.668;23.322;2023-12-20T09:25:09;94531.00;;;3.08
45976;BMP280;31696;42.668;23.322;2023-12-20T09:27:10;94527.44;;;3.23
45976;BMP280;31696;42.668;23.322;2023-12-20T09:29:10;94528.44;;;3.08
45976;BMP280;31696;42.668;23.322;2023-12-20T09:31:15;94519.53;;;3.21
45976;BMP280;31696;42.668;23.322;2023-12-20T09:33:15;94528.00;;;3.45
45976;BMP280;31696;42.668;23.322;2023-12-20T09:35:16;94521.56;;;2.81
45976;BMP280;31696;42.668;23.322;2023-12-20T09:37:16;94515.69;;;2.92
45976;BMP280;31696;42.668;23.322;2023-12-20T09:39:17;94508.53;;;2.68
45976;BMP280;31696;42.668;23.322;2023-12-20T09:41:19;94505.31;;;2.62
45976;BMP280;31696;42.668;23.322;2023-12-20T09:43:20;94495.44;;;2.77
45976;BMP280;31696;42.668;23.322;2023-12-20T09:45:20;94504.69;;;3.02
45976;BMP280;31696;42.668;23.322;2023-12-20T09:47:24;94498.91;;;2.91
45976;BMP280;31696;42.668;23.322;2023-12-20T09:49:25;94481.38;;;2.95
45976;BMP280;31696;42.668;23.322;2023-12-20T09:51:28;94486.56;;;3.30
45976;BMP280;31696;42.668;23.322;2023-12-20T09:53:28;94480.66;;;3.41
45976;BMP280;31696;42.668;23.322;2023-12-20T09:55:29;94476.53;;;3.27
45976;BMP280;31696;42.668;23.322;2023-12-20T09:57:30;94476.19;;;3.47
45976;BMP280;31696;42.668;23.322;2023-12-20T09:59:30;94469.53;;;3.63
45976;BMP280;31696;42.668;23.322;2023-12-20T10:01:31;94463.06;;;3.50
45976;BMP280;31696;42.668;23.322;2023-12-20T10:03:31;94481.41;;;3.66
45976;BMP280;31696;42.668;23.322;2023-12-20T10:05:32;94470.94;;;3.64
45976;BMP280;31696;42.668;23.322;2023-12-20T10:07:33;94465.88;;;3.52
45976;BMP280;31696;42.668;23.322;2023-12-20T10:09:34;94463.78;;;3.51
45976;BMP280;31696;42.668;23.322;2023-12-20T10:11:38;94462.66;;;3.46
45976;BMP280;31696;42.668;23.322;2023-12-20T10:13:42;94459.00;;;3.66
45976;BMP280;31696;42.668;23.322;2023-12-20T10:15:42;94456.81;;;4.00
45976;BMP280;31696;42.668;23.322;2023-12-20T10:17:43;94449.72;;;4.12
45976;BMP280;31696;42.668;23.322;2023-12-20T10:19:43;94448.63;;;4.26
45976;BMP280;31696;42.668;23.322;2023-12-20T10:21:43;94438.59;;;4.65
45976;BMP280;31696;42.668;23.322;2023-12-20T10:23:45;94434.81;;;4.29
45976;BMP280;31696;42.668;23.322;2023-12-20T10:25:54;94426.84;;;4.51
45976;BMP280;31696;42.668;23.322;2023-12-20T10:28:09;94421.72;;;4.51
45976;BMP280;31696;42.668;23.322;2023-12-20T10:30:09;94423.09;;;4.52
45976;BMP280;31696;42.668;23.322;2023-12-20T10:32:23;94408.16;;;4.08
45976;BMP280;31696;42.668;23.322;2023-12-20T10:34:26;94420.09;;;4.29
45976;BMP280;31696;42.668;23.322;2023-12-20T10:36:29;94410.03;;;4.50
45976;BMP280;31696;42.668;23.322;2023-12-20T10:38:29;94408.41;;;4.47
45976;BMP280;31696;42.668;23.322;2023-12-20T10:40:30;94412.09;;;4.33
45976;BMP280;31696;42.668;23.322;2023-12-20T10:42:31;94402.28;;;4.31
45976;BMP280;31696;42.668;23.322;2023-12-20T10:44:31;94401.69;;;4.44
45976;BMP280;31696;42.668;23.322;2023-12-20T10:46:31;94385.34;;;4.41
45976;BMP280;31696;42.668;23.322;2023-12-20T10:48:36;94391.94;;;4.37
45976;BMP280;31696;42.668;23.322;2023-12-20T10:50:37;94373.34;;;4.49
45976;BMP280;31696;42.668;23.322;2023-12-20T10:52:41;94386.03;;;4.42
45976;BMP280;31696;42.668;23.322;2023-12-20T10:54:42;94397.72;;;4.24
45976;BMP280;31696;42.668;23.322;2023-12-20T10:56:43;94376.22;;;4.03
45976;BMP280;31696;42.668;23.322;2023-12-20T10:58:43;94370.97;;;4.33
45976;BMP280;31696;42.668;23.322;2023-12-20T11:00:43;94375.13;;;4.55
45976;BMP280;31696;42.668;23.322;2023-12-20T11:02:45;94363.41;;;3.97
45976;BMP280;31696;42.668;23.322;2023-12-20T11:04:56;94367.06;;;4.26
45976;BMP280;31696;42.668;23.322;2023-12-20T11:07:01;94354.97;;;4.02
45976;BMP280;31696;42.668;23.322;2023-12-20T11:09:14;94361.50;;;4.03
45976;BMP280;31696;42.668;23.322;2023-12-20T11:11:27;94354.84;;;4.14
45976;BMP280;31696;42.668;23.322;2023-12-20T11:13:32;94356.59;;;4.00
45976;BMP280;31696;42.668;23.322;2023-12-20T11:15:32;94346.59;;;3.96
45976;BMP280;31696;42.668;23.322;2023-12-20T11:17:33;94352.41;;;4.02
45976;BMP280;31696;42.668;23.322;2023-12-20T11:19:35;94336.63;;;3.93
45976;BMP280;31696;42.668;23.322;2023-12-20T11:21:36;94335.81;;;4.03
45976;BMP280;31696;42.668;23.322;2023-12-20T11:23:36;94335.09;;;3.84
45976;BMP280;31696;42.668;23.322;2023-12-20T11:25:52;94325.25;;;4.07
45976;BMP280;31696;42.668;23.322;2023-12-20T11:28:11;94326.22;;;4.23
45976;BMP280;31696;42.668;23.322;2023-12-20T11:30:12;94324.66;;;3.95
45976;BMP280;31696;42.668;23.322;2023-12-20T11:34:27;94308.22;;;3.85
45976;BMP280;31696;42.668;23.322;2023-12-20T11:36:28;94301.16;;;3.91
45976;BMP280;31696;42.668;23.322;2023-12-20T11:38:36;94285.66;;;3.78